Time;durP1;ratioP1;P1;durP2;ratioP2;P2;SDS_P1;SDS_P2;PMS_P1;PMS_P2;Temp;Humidity;BMP_temperature;BMP_pressure;BME280_temperature;BME280_humidity;BME280_pressure;Samples;Min_cycle;Max_cycle;Signal;HPM_P1;HPM_P2
2021/09/10 00:02:23;;;;;;;13.32;9.20;;;;;;;16.44;94.04;98326.88;5026952;28;20092;-65
2021/09/10 00:04:49;;;;;;;15.75;10.43;;;;;;;16.38;94.25;98321.81;5009175;28;20337;-65
2021/09/10 00:07:14;;;;;;;13.82;10.15;;;;;;;16.40;94.29;98322.63;5027143;28;20033;-65
2021/09/10 00:09:39;;;;;;;12.23;9.10;;;;;;;16.48;93.98;98331.09;5026846;28;20033;-65
2021/09/10 00:12:05;;;;;;;13.48;9.88;;;;;;;16.48;93.56;98323.13;5026765;28;20029;-65
2021/09/10 00:14:31;;;;;;;15.90;10.10;;;;;;;16.36;93.78;98326.31;5026742;28;20026;-65
2021/09/10 00:16:56;;;;;;;14.20;8.88;;;;;;;16.34;94.02;98336.19;5026719;28;20022;-65
2021/09/10 00:19:21;;;;;;;21.80;10.55;;;;;;;16.26;94.10;98338.31;5026658;28;20026;-65
2021/09/10 00:21:47;;;;;;;16.15;9.50;;;;;;;16.30;94.15;98339.06;5026610;28;20026;-65
2021/09/10 00:24:12;;;;;;;15.65;9.60;;;;;;;16.34;93.21;98330.00;5008936;28;20053;-65
2021/09/10 00:26:38;;;;;;;14.63;9.73;;;;;;;16.32;93.72;98338.03;5026537;28;20029;-65
2021/09/10 00:29:03;;;;;;;18.15;9.85;;;;;;;16.39;93.45;98330.66;5026466;28;20026;-65
2021/09/10 00:31:28;;;;;;;12.60;9.45;;;;;;;16.35;93.58;98335.25;5026428;28;20344;-65
2021/09/10 00:33:54;;;;;;;15.68;9.90;;;;;;;16.31;93.78;98336.31;5008868;28;20022;-65
2021/09/10 00:36:19;;;;;;;16.38;9.82;;;;;;;16.20;94.27;98327.97;5026245;28;20097;-65
2021/09/10 00:38:45;;;;;;;11.82;9.43;;;;;;;16.22;94.35;98336.75;5026247;28;20033;-65
2021/09/10 00:41:11;;;;;;;13.60;9.23;;;;;;;16.24;94.36;98331.38;5026243;28;20372;-65
2021/09/10 00:43:36;;;;;;;12.32;9.15;;;;;;;16.28;94.22;98328.50;5026107;28;20030;-65
2021/09/10 00:46:02;;;;;;;13.95;10.30;;;;;;;16.33;94.14;98329.13;5026159;28;20029;-65
2021/09/10 00:48:28;;;;;;;17.20;9.65;;;;;;;16.31;93.96;98320.41;5026105;28;20022;-65
2021/09/10 00:50:54;;;;;;;14.13;9.90;;;;;;;16.25;94.61;98328.63;5026090;28;20026;-65
2021/09/10 00:53:20;;;;;;;13.77;9.95;;;;;;;16.28;94.04;98331.16;5026014;28;20021;-65
2021/09/10 00:55:46;;;;;;;12.38;9.02;;;;;;;16.35;93.21;98327.28;5025982;28;20343;-65
2021/09/10 00:58:12;;;;;;;14.23;10.00;;;;;;;16.33;93.51;98336.25;5025945;28;20029;-65
2021/09/10 01:00:38;;;;;;;16.27;10.02;;;;;;;16.25;94.01;98339.25;5025899;28;20028;-65
2021/09/10 01:03:04;;;;;;;18.45;10.27;;;;;;;16.21;94.25;98339.47;5025757;28;20057;-65
2021/09/10 01:05:29;;;;;;;14.48;10.45;;;;;;;16.19;94.62;98336.88;5025658;28;20045;-65
2021/09/10 01:07:57;;;;;;;16.13;10.57;;;;;;;16.16;94.57;98337.03;5025792;28;20053;-65
2021/09/10 01:10:23;;;;;;;15.70;10.57;;;;;;;16.21;95.16;98332.38;5025706;28;20026;-65
2021/09/10 01:12:50;;;;;;;15.02;10.25;;;;;;;16.26;95.22;98337.47;5025684;28;20132;-65
2021/09/10 01:15:15;;;;;;;14.07;9.10;;;;;;;16.33;94.61;98341.56;5025632;28;20067;-65
2021/09/10 01:17:41;;;;;;;11.55;8.70;;;;;;;16.39;94.36;98339.47;5025574;28;20053;-65
2021/09/10 01:20:08;;;;;;;19.70;9.60;;;;;;;16.39;94.08;98339.47;5025518;28;20195;-65
2021/09/10 01:22:34;;;;;;;13.65;9.27;;;;;;;16.36;94.60;98334.28;5025368;28;20030;-65
2021/09/10 01:25:13;;;;;;;14.60;10.10;;;;;;;16.34;94.97;98338.84;5025431;28;20045;-65
2021/09/10 01:27:44;;;;;;;16.10;9.38;;;;;;;16.38;94.44;98332.44;5025485;28;20029;-65
2021/09/10 01:30:13;;;;;;;13.20;8.13;;;;;;;16.42;94.42;98339.31;5025334;28;20186;-65
2021/09/10 01:32:39;;;;;;;14.48;8.18;;;;;;;16.46;93.97;98340.09;5025288;28;20026;-65
2021/09/10 01:35:05;;;;;;;12.95;9.18;;;;;;;16.48;93.89;98339.06;5025490;28;20216;-65
2021/09/10 01:37:31;;;;;;;12.80;9.45;;;;;;;16.43;94.31;98338.44;5025474;28;20044;-65
2021/09/10 01:39:56;;;;;;;14.05;9.02;;;;;;;16.46;94.14;98334.78;5025166;28;20321;-65
2021/09/10 01:42:22;;;;;;;15.05;10.05;;;;;;;16.44;94.02;98334.84;5025136;28;20049;-65
2021/09/10 01:44:47;;;;;;;14.43;9.70;;;;;;;16.39;94.30;98338.63;5025007;28;20026;-65
2021/09/10 01:47:13;;;;;;;13.27;8.63;;;;;;;16.40;94.55;98341.22;5025004;28;20018;-65
2021/09/10 01:49:38;;;;;;;13.50;9.38;;;;;;;16.41;94.33;98340.28;5024516;28;20018;-65
2021/09/10 01:52:03;;;;;;;13.13;9.15;;;;;;;16.39;94.48;98344.78;5024927;28;20079;-65
2021/09/10 01:54:29;;;;;;;12.10;9.65;;;;;;;16.44;94.43;98347.25;5024930;28;20048;-65
2021/09/10 01:56:54;;;;;;;15.90;10.90;;;;;;;16.48;94.18;98341.72;5025135;28;20021;-65
2021/09/10 01:59:20;;;;;;;15.82;10.15;;;;;;;16.48;94.63;98340.84;5024814;28;20029;-65
2021/09/10 02:01:45;;;;;;;13.60;9.30;;;;;;;16.51;94.72;98344.25;5024779;28;20026;-65
2021/09/10 02:04:11;;;;;;;10.80;8.93;;;;;;;16.54;94.26;98344.09;5024457;28;20042;-65
2021/09/10 02:06:36;;;;;;;13.65;9.45;;;;;;;16.58;94.12;98336.84;5024706;28;20266;-65
2021/09/10 02:09:02;;;;;;;14.32;9.65;;;;;;;16.55;94.50;98337.84;5024691;28;20021;-65
2021/09/10 02:11:28;;;;;;;16.98;9.50;;;;;;;16.50;94.75;98337.22;5024676;28;20093;-65
2021/09/10 02:13:53;;;;;;;11.43;8.77;;;;;;;16.52;94.69;98335.31;5024592;28;20041;-65
2021/09/10 02:16:19;;;;;;;15.90;9.10;;;;;;;16.55;94.55;98335.19;5024761;28;20022;-65
2021/09/10 02:18:44;;;;;;;13.30;8.85;;;;;;;16.56;94.61;98336.94;5006970;28;20029;-65
2021/09/10 02:21:09;;;;;;;16.80;9.20;;;;;;;16.51;94.90;98338.94;5024467;28;20022;-65
2021/09/10 02:23:35;;;;;;;16.13;10.05;;;;;;;16.52;94.94;98340.63;5024404;28;20209;-65
2021/09/10 02:26:01;;;;;;;11.23;9.38;;;;;;;16.51;95.22;98338.94;5024439;28;20026;-65
2021/09/10 02:28:27;;;;;;;13.20;9.77;;;;;;;16.59;94.97;98335.91;5024392;28;20256;-65
2021/09/10 02:30:53;;;;;;;12.75;9.25;;;;;;;16.58;94.79;98337.69;5024341;28;20117;-65
2021/09/10 02:33:19;;;;;;;13.07;9.48;;;;;;;16.57;94.50;98338.63;5024310;28;20022;-65
2021/09/10 02:35:44;;;;;;;16.63;9.55;;;;;;;16.39;95.16;98328.84;5024247;28;20044;-65
2021/09/10 02:38:10;;;;;;;14.52;9.40;;;;;;;16.40;94.89;98335.03;5024249;28;20084;-65
2021/09/10 02:40:36;;;;;;;12.75;9.55;;;;;;;16.32;94.87;98338.03;5024187;28;20041;-65
2021/09/10 02:43:01;;;;;;;12.50;9.05;;;;;;;16.34;95.11;98336.19;5024113;28;20081;-65
2021/09/10 02:45:27;;;;;;;13.77;8.98;;;;;;;16.36;95.36;98334.28;5024155;28;20018;-65
2021/09/10 02:47:53;;;;;;;14.27;9.25;;;;;;;16.37;95.35;98330.72;5024214;28;20089;-65
2021/09/10 02:50:19;;;;;;;12.48;9.65;;;;;;;16.35;95.15;98326.41;5024126;28;20018;-65
2021/09/10 02:52:44;;;;;;;14.70;9.18;;;;;;;16.42;94.67;98323.38;5024072;28;20029;-65
2021/09/10 02:55:10;;;;;;;16.77;9.60;;;;;;;16.45;94.50;98328.59;5024023;28;20021;-65
2021/09/10 02:57:36;;;;;;;15.27;9.52;;;;;;;16.44;94.52;98321.56;5024043;28;20018;-65
2021/09/10 03:00:03;;;;;;;15.02;9.68;;;;;;;16.43;94.96;98318.97;5024157;28;20068;-65
2021/09/10 03:02:28;;;;;;;12.23;9.02;;;;;;;16.46;94.76;98317.03;5027894;28;20390;-66
2021/09/10 03:04:54;;;;;;;14.45;8.90;;;;;;;16.47;94.62;98315.22;5027831;28;20042;-65
2021/09/10 03:07:19;;;;;;;13.60;9.80;;;;;;;16.40;94.97;98312.00;5028024;28;20017;-65
2021/09/10 03:09:45;;;;;;;11.40;8.75;;;;;;;16.38;95.14;98313.84;5010502;28;20104;-65
2021/09/10 03:12:10;;;;;;;12.55;9.07;;;;;;;16.37;95.22;98314.78;5027934;28;20343;-65
2021/09/10 03:14:35;;;;;;;11.43;8.85;;;;;;;16.38;94.90;98311.19;5027881;28;20018;-65
2021/09/10 03:17:01;;;;;;;15.02;10.30;;;;;;;16.38;95.02;98311.19;5027857;28;20044;-65
2021/09/10 03:19:28;;;;;;;12.23;9.77;;;;;;;16.32;95.49;98316.78;5027782;28;20037;-65
2021/09/10 03:21:54;;;;;;;17.50;9.98;;;;;;;16.29;95.70;98310.75;5027757;28;20313;-65
2021/09/10 03:24:20;;;;;;;20.55;9.68;;;;;;;16.27;95.61;98308.19;5027651;28;20022;-65
2021/09/10 03:26:45;;;;;;;15.55;9.52;;;;;;;16.31;95.49;98304.47;5027681;28;20040;-65
2021/09/10 03:29:12;;;;;;;14.98;10.18;;;;;;;16.30;95.56;98310.69;5027647;28;20068;-65
2021/09/10 03:31:38;;;;;;;17.42;10.20;;;;;;;16.19;95.78;98305.03;5027560;28;20029;-65
2021/09/10 03:34:03;;;;;;;14.60;9.23;;;;;;;16.26;95.91;98301.13;5027546;28;20018;-65
2021/09/10 03:36:29;;;;;;;14.98;9.98;;;;;;;16.26;95.94;98295.84;5027502;28;20191;-65
2021/09/10 03:38:54;;;;;;;15.70;10.30;;;;;;;16.36;95.65;98290.97;5009906;28;20022;-65
2021/09/10 03:41:20;;;;;;;12.82;9.35;;;;;;;16.33;95.69;98293.75;5009895;28;20052;-65
2021/09/10 03:43:49;;;;;;;14.10;10.43;;;;;;;16.39;95.51;98291.66;5027282;28;20022;-65
2021/09/10 03:46:14;;;;;;;12.68;9.82;;;;;;;16.35;95.28;98289.22;5027308;28;20053;-65
2021/09/10 03:48:40;;;;;;;12.77;9.23;;;;;;;16.34;95.47;98293.69;5027261;28;20018;-65
2021/09/10 03:51:05;;;;;;;11.15;8.77;;;;;;;16.36;95.43;98297.09;5027219;28;20253;-65
2021/09/10 03:53:31;;;;;;;14.02;9.05;;;;;;;16.37;95.59;98292.66;5027193;28;20313;-65
2021/09/10 03:55:56;;;;;;;15.20;9.70;;;;;;;16.38;95.69;98295.25;5027204;28;20049;-65
2021/09/10 03:58:22;;;;;;;15.57;9.77;;;;;;;16.43;95.67;98287.97;5009620;28;20347;-65
2021/09/10 04:00:47;;;;;;;15.07;9.75;;;;;;;16.44;95.23;98295.00;5009543;28;20022;-65
2021/09/10 04:03:12;;;;;;;13.88;9.30;;;;;;;16.43;95.08;98287.97;5026816;28;20029;-65
2021/09/10 04:05:38;;;;;;;11.85;9.52;;;;;;;16.36;95.17;98296.28;5026761;28;20045;-65
2021/09/10 04:08:03;;;;;;;13.02;9.15;;;;;;;16.25;95.67;98294.13;5026897;28;20202;-65
2021/09/10 04:10:29;;;;;;;15.43;10.10;;;;;;;16.20;95.96;98293.47;5026893;28;20217;-65
2021/09/10 04:12:55;;;;;;;16.35;9.25;;;;;;;16.23;95.93;98290.66;5026326;28;20053;-65
2021/09/10 04:15:21;;;;;;;13.75;8.90;;;;;;;16.19;95.82;98294.41;5026770;28;20022;-65
2021/09/10 04:17:46;;;;;;;14.40;10.18;;;;;;;16.23;95.51;98295.97;5026998;28;20021;-65
2021/09/10 04:20:13;;;;;;;11.75;9.18;;;;;;;16.17;95.75;98292.75;5026730;28;20313;-65
2021/09/10 04:22:41;;;;;;;14.73;9.10;;;;;;;16.19;96.04;98299.72;5026650;28;20097;-65
2021/09/10 04:25:07;;;;;;;14.32;9.55;;;;;;;16.23;95.71;98290.66;5009127;28;20217;-65
2021/09/10 04:27:33;;;;;;;17.23;10.20;;;;;;;16.25;95.61;98302.09;5026789;28;20026;-65
2021/09/10 04:29:59;;;;;;;13.45;9.38;;;;;;;16.23;95.81;98301.28;5026511;28;20258;-65
2021/09/10 04:32:25;;;;;;;18.73;10.23;;;;;;;16.27;95.50;98297.56;5026456;28;20026;-65
2021/09/10 04:34:51;;;;;;;12.68;9.02;;;;;;;16.23;95.41;98295.97;5026324;28;20018;-65
2021/09/10 04:37:17;;;;;;;12.82;9.35;;;;;;;16.21;95.45;98292.56;5026365;28;20029;-65
2021/09/10 04:39:42;;;;;;;14.57;10.00;;;;;;;16.15;95.86;98295.50;5026308;28;20308;-65
2021/09/10 04:42:09;;;;;;;13.73;10.02;;;;;;;16.13;96.47;98288.50;5026254;28;20025;-65
2021/09/10 04:44:34;;;;;;;18.35;10.77;;;;;;;16.11;96.29;98296.53;5026179;28;20030;-65
2021/09/10 04:47:00;;;;;;;17.70;10.82;;;;;;;16.18;96.31;98292.69;5026173;28;20034;-65
2021/09/10 04:49:26;;;;;;;16.13;9.90;;;;;;;16.21;96.06;98297.84;5026160;28;20225;-65
2021/09/10 04:51:51;;;;;;;18.38;10.55;;;;;;;16.16;96.01;98298.97;5026084;28;20042;-65
2021/09/10 04:54:16;;;;;;;14.73;9.55;;;;;;;16.19;96.24;98307.69;5026055;28;20018;-65
2021/09/10 04:56:43;;;;;;;16.83;10.48;;;;;;;16.23;96.14;98306.59;5026018;28;20026;-65
2021/09/10 04:59:09;;;;;;;14.25;10.68;;;;;;;16.25;96.21;98312.72;5025954;28;20030;-65
2021/09/10 05:01:34;;;;;;;13.90;10.10;;;;;;;16.33;95.78;98307.03;5025953;28;20053;-65
2021/09/10 05:04:00;;;;;;;13.05;10.15;;;;;;;16.36;95.84;98313.03;5025559;28;20025;-65
2021/09/10 05:06:28;;;;;;;14.88;9.35;;;;;;;16.33;95.85;98315.84;5025865;28;20250;-65
2021/09/10 05:08:53;;;;;;;12.63;9.85;;;;;;;16.35;95.94;98311.34;5026031;28;20081;-65
2021/09/10 05:11:19;;;;;;;17.00;9.95;;;;;;;16.40;96.10;98313.78;5025712;28;20198;-65
2021/09/10 05:13:45;;;;;;;19.10;10.23;;;;;;;16.44;95.75;98312.72;5025647;28;20025;-65
2021/09/10 05:16:10;;;;;;;14.35;9.93;;;;;;;16.46;95.79;98313.53;5025630;28;20028;-65
2021/09/10 05:18:35;;;;;;;13.32;8.95;;;;;;;16.42;95.55;98317.22;5025607;28;20025;-65
2021/09/10 05:21:01;;;;;;;13.48;8.93;;;;;;;16.38;95.78;98321.81;5025531;28;20029;-65
2021/09/10 05:23:26;;;;;;;12.80;9.50;;;;;;;16.39;95.99;98317.38;5024830;28;20025;-65
2021/09/10 05:25:52;;;;;;;17.75;11.45;;;;;;;16.44;96.24;98320.69;5025466;28;20036;-65
2021/09/10 05:28:17;;;;;;;19.92;11.88;;;;;;;16.52;96.31;98324.69;5025430;28;20084;-65
2021/09/10 05:30:42;;;;;;;14.15;10.60;;;;;;;16.68;96.52;98324.84;5025407;28;20128;-65
2021/09/10 05:33:08;;;;;;;15.10;11.65;;;;;;;16.80;96.65;98325.09;5025385;28;20021;-65
2021/09/10 05:35:33;;;;;;;17.27;11.82;;;;;;;16.91;96.53;98330.75;5025229;28;20026;-65
2021/09/10 05:37:59;;;;;;;16.92;11.15;;;;;;;16.99;95.28;98331.22;5025254;28;20085;-65
2021/09/10 05:40:24;;;;;;;18.27;11.90;;;;;;;17.02;92.76;98331.06;5025185;28;20336;-66
2021/09/10 05:42:50;;;;;;;15.90;11.60;;;;;;;17.05;95.17;98340.69;5025085;28;20021;-65
2021/09/10 05:45:15;;;;;;;22.83;12.35;;;;;;;17.06;91.01;98331.78;5025128;28;20038;-65
2021/09/10 05:47:40;;;;;;;16.60;12.15;;;;;;;17.10;90.28;98339.53;5025071;28;20034;-65
2021/09/10 05:50:07;;;;;;;16.73;11.77;;;;;;;17.10;94.82;98328.03;5025033;28;20053;-65
2021/09/10 05:52:32;;;;;;;18.60;11.57;;;;;;;17.14;89.23;98337.56;5024977;28;20043;-65
2021/09/10 05:54:58;;;;;;;18.65;11.73;;;;;;;17.12;92.62;98345.63;5024976;28;20329;-65
2021/09/10 05:57:23;;;;;;;15.57;11.23;;;;;;;17.15;96.94;98339.31;5024877;28;20063;-65
2021/09/10 05:59:48;;;;;;;18.35;12.90;;;;;;;17.06;90.67;98342.44;5024850;28;20018;-65
2021/09/10 06:02:14;;;;;;;15.35;11.88;;;;;;;17.07;99.33;98342.34;5024792;28;20317;-65
2021/09/10 06:04:39;;;;;;;17.67;11.63;;;;;;;17.04;99.37;98339.84;5024432;28;20109;-65
2021/09/10 06:07:05;;;;;;;15.85;11.40;;;;;;;17.02;99.65;98341.72;5024735;28;20327;-65
2021/09/10 06:09:31;;;;;;;18.45;11.80;;;;;;;17.00;99.88;98345.38;5007197;28;20026;-65
2021/09/10 06:11:57;;;;;;;17.05;12.77;;;;;;;17.01;99.85;98349.75;5024634;28;20024;-65
2021/09/10 06:14:22;;;;;;;17.40;11.80;;;;;;;17.01;99.89;98350.63;5024603;28;20018;-65
2021/09/10 06:16:47;;;;;;;18.23;12.68;;;;;;;17.06;99.88;98353.91;5024564;28;20018;-65
2021/09/10 06:19:13;;;;;;;18.83;12.18;;;;;;;17.09;100.00;98359.06;5024753;28;20022;-65
2021/09/10 06:21:38;;;;;;;15.50;11.35;;;;;;;17.15;99.94;98358.78;5024520;28;20310;-65
2021/09/10 06:24:04;;;;;;;16.15;11.73;;;;;;;17.20;100.00;98350.56;5024436;28;20052;-65
2021/09/10 06:26:29;;;;;;;20.17;11.70;;;;;;;17.27;100.00;98347.53;5024450;28;20312;-65
2021/09/10 06:28:55;;;;;;;18.13;11.48;;;;;;;17.34;100.00;98353.41;5024406;28;20391;-65
2021/09/10 06:31:20;;;;;;;14.45;11.77;;;;;;;17.44;99.92;98359.16;5024350;28;20060;-65
2021/09/10 06:33:45;;;;;;;17.27;11.60;;;;;;;17.49;99.77;98351.81;5024325;28;20033;-65
2021/09/10 06:36:11;;;;;;;14.65;11.18;;;;;;;17.53;99.85;98353.34;5024388;28;20026;-65
2021/09/10 06:38:36;;;;;;;14.32;11.07;;;;;;;17.53;99.52;98353.34;5024251;28;20018;-65
2021/09/10 06:41:02;;;;;;;15.93;11.38;;;;;;;17.55;99.52;98359.44;5024216;28;20025;-65
2021/09/10 06:43:27;;;;;;;16.52;12.23;;;;;;;17.60;99.55;98357.41;5024118;28;20056;-65
2021/09/10 06:45:52;;;;;;;16.33;11.18;;;;;;;17.60;99.00;98354.75;5024205;28;20018;-65
2021/09/10 06:48:18;;;;;;;13.55;10.32;;;;;;;17.62;98.80;98367.03;5024151;28;20068;-65
2021/09/10 06:50:43;;;;;;;15.35;12.07;;;;;;;17.68;99.18;98357.91;5024141;28;20248;-65
2021/09/10 06:53:09;;;;;;;16.20;10.82;;;;;;;17.79;99.24;98366.16;5024109;28;20018;-65
2021/09/10 06:55:34;;;;;;;17.85;11.98;;;;;;;17.80;98.86;98366.09;5006555;28;20021;-65
2021/09/10 06:58:00;;;;;;;14.25;10.73;;;;;;;17.84;98.21;98359.66;5024078;28;20021;-65
2021/09/10 07:00:25;;;;;;;16.48;10.27;;;;;;;17.87;97.92;98370.16;5024053;28;20186;-65
2021/09/10 07:02:51;;;;;;;14.88;11.48;;;;;;;17.90;98.00;98377.09;5023889;28;20022;-65
2021/09/10 07:05:16;;;;;;;17.63;11.75;;;;;;;17.96;98.49;98375.00;5023836;28;20045;-65
2021/09/10 07:07:42;;;;;;;18.60;11.23;;;;;;;17.95;98.35;98383.06;5024006;28;20026;-65
2021/09/10 07:10:08;;;;;;;13.95;10.93;;;;;;;17.90;98.17;98377.97;5023936;28;20029;-65
2021/09/10 07:12:33;;;;;;;13.05;10.10;;;;;;;17.91;98.07;98382.34;5023917;28;20412;-65
2021/09/10 07:14:58;;;;;;;16.42;11.18;;;;;;;17.89;97.93;98386.03;5023969;28;20024;-65
2021/09/10 07:17:24;;;;;;;14.45;10.35;;;;;;;17.97;97.93;98387.34;5023885;28;20113;-65
2021/09/10 07:19:49;;;;;;;16.80;10.57;;;;;;;18.05;98.16;98389.63;5023866;28;20304;-65
2021/09/10 07:22:15;;;;;;;16.83;11.75;;;;;;;18.15;97.58;98385.53;5023876;28;20205;-65
2021/09/10 07:24:41;;;;;;;14.05;10.73;;;;;;;18.41;96.81;98385.88;5023731;28;20037;-65
2021/09/10 07:27:07;;;;;;;14.57;10.40;;;;;;;18.47;95.91;98387.34;5023758;28;20028;-65
2021/09/10 07:29:32;;;;;;;14.85;10.30;;;;;;;18.69;95.71;98395.88;5023758;28;20029;-65
2021/09/10 07:31:58;;;;;;;11.80;9.38;;;;;;;18.79;95.20;98395.28;5023733;28;20022;-65
2021/09/10 07:34:23;;;;;;;14.35;8.90;;;;;;;18.86;94.71;98401.16;5023978;28;20014;-65
2021/09/10 07:36:49;;;;;;;14.15;10.07;;;;;;;18.91;95.09;98404.41;5023718;28;20017;-65
2021/09/10 07:39:19;;;;;;;14.18;9.85;;;;;;;19.07;95.10;98405.25;5023659;28;20022;-65
2021/09/10 07:41:45;;;;;;;14.35;10.77;;;;;;;19.08;94.57;98409.66;5023645;28;20018;-65
2021/09/10 07:44:13;;;;;;;12.93;9.80;;;;;;;19.11;95.03;98409.50;5023554;28;20364;-65
2021/09/10 07:46:39;;;;;;;15.32;9.15;;;;;;;19.20;95.02;98403.59;5024671;28;20018;-65
2021/09/10 07:49:04;;;;;;;14.63;9.80;;;;;;;19.23;95.06;98403.44;5027253;28;20331;-65
2021/09/10 07:51:29;;;;;;;15.57;10.27;;;;;;;19.19;95.30;98409.91;5027239;28;20018;-65
2021/09/10 07:53:55;;;;;;;14.35;9.77;;;;;;;19.21;95.54;98413.34;5027192;28;20018;-65
2021/09/10 07:56:20;;;;;;;15.55;10.38;;;;;;;19.26;95.30;98411.28;5027108;28;20041;-65
2021/09/10 07:58:46;;;;;;;15.85;10.23;;;;;;;19.25;95.49;98405.09;5027125;28;20022;-65
2021/09/10 08:01:11;;;;;;;14.30;9.85;;;;;;;19.20;95.56;98416.94;5027071;28;20017;-65
2021/09/10 08:03:36;;;;;;;17.67;11.18;;;;;;;19.24;96.31;98413.19;5026851;28;20113;-65
2021/09/10 08:06:02;;;;;;;16.55;10.48;;;;;;;19.31;93.85;98419.91;5026843;28;20080;-65
2021/09/10 08:08:27;;;;;;;15.27;10.60;;;;;;;19.36;91.73;98420.47;5026914;28;20021;-65
2021/09/10 08:10:53;;;;;;;16.33;10.63;;;;;;;19.47;89.24;98420.75;5026921;28;20226;-65
2021/09/10 08:13:19;;;;;;;15.32;10.93;;;;;;;19.48;91.75;98422.44;5026822;28;20079;-65
2021/09/10 08:15:44;;;;;;;16.10;10.68;;;;;;;19.49;92.41;98417.97;5026795;28;20021;-65
2021/09/10 08:18:10;;;;;;;14.32;10.32;;;;;;;19.48;90.14;98422.44;5026736;28;20025;-65
2021/09/10 08:20:35;;;;;;;13.15;10.27;;;;;;;19.47;90.30;98431.41;5026693;28;20316;-65
2021/09/10 08:23:01;;;;;;;15.80;10.68;;;;;;;19.49;90.86;98429.50;5026617;28;20026;-65
2021/09/10 08:25:26;;;;;;;17.00;10.65;;;;;;;19.52;90.05;98429.31;5026606;28;20041;-65
2021/09/10 08:27:52;;;;;;;14.80;10.75;;;;;;;19.57;89.50;98432.59;5026581;28;20217;-65
2021/09/10 08:30:17;;;;;;;13.57;10.07;;;;;;;19.62;88.88;98432.31;5026529;28;20097;-65
2021/09/10 08:32:42;;;;;;;14.20;10.48;;;;;;;19.63;88.15;98431.38;5026409;28;20025;-65
2021/09/10 08:35:08;;;;;;;14.07;11.48;;;;;;;19.66;89.64;98434.72;5008955;28;20045;-65
2021/09/10 08:37:34;;;;;;;15.85;11.75;;;;;;;19.71;88.70;98435.31;5026426;28;20394;-65
2021/09/10 08:40:01;;;;;;;14.13;10.35;;;;;;;19.75;87.22;98442.22;5026439;28;20022;-65
2021/09/10 08:42:27;;;;;;;14.38;10.55;;;;;;;19.73;87.58;98435.22;5026313;28;20320;-65
2021/09/10 08:44:53;;;;;;;14.68;11.35;;;;;;;19.86;89.38;98441.53;5026203;28;20028;-65
2021/09/10 08:47:18;;;;;;;16.15;11.40;;;;;;;19.94;89.16;98437.50;5026214;28;20025;-65
2021/09/10 08:49:45;;;;;;;18.48;11.55;;;;;;;20.08;87.99;98440.19;5026175;28;20085;-66
2021/09/10 08:52:11;;;;;;;18.00;11.88;;;;;;;20.19;89.28;98443.06;5026144;28;20022;-66
2021/09/10 08:54:36;;;;;;;22.08;13.30;;;;;;;20.32;86.49;98448.56;5026158;28;20018;-66
2021/09/10 08:57:02;;;;;;;18.65;11.98;;;;;;;20.46;83.75;98449.44;5026100;28;20092;-66
2021/09/10 08:59:28;;;;;;;17.90;12.77;;;;;;;20.60;85.09;98449.41;5025974;28;20089;-66
2021/09/10 09:01:56;;;;;;;16.02;11.32;;;;;;;20.74;84.07;98452.09;5025967;28;20018;-66
2021/09/10 09:04:28;;;;;;;15.57;11.35;;;;;;;20.86;84.70;98458.50;5025579;28;20045;-66
2021/09/10 09:06:56;;;;;;;15.60;11.93;;;;;;;20.86;83.80;98451.34;5025860;28;20052;-66
2021/09/10 09:09:33;;;;;;;15.35;10.80;;;;;;;21.14;82.89;98453.13;5025799;28;20022;-66
2021/09/10 09:12:26;;;;;;;14.73;10.90;;;;;;;21.30;80.05;98457.38;5025766;28;20038;-66
2021/09/10 09:14:54;;;;;;;14.93;11.35;;;;;;;21.54;80.96;98454.06;5025664;28;20022;-66
2021/09/10 09:17:24;;;;;;;22.65;12.45;;;;;;;21.52;81.23;98455.97;5025911;28;20033;-66
2021/09/10 09:20:17;;;;;;;15.57;11.82;;;;;;;21.84;80.13;98441.34;5025622;28;20072;-66
2021/09/10 09:23:06;;;;;;;19.30;11.98;;;;;;;22.13;79.94;98438.38;5008073;28;20225;-66
2021/09/10 09:25:41;;;;;;;15.73;11.07;;;;;;;22.38;78.56;98443.78;5025523;28;20022;-66
2021/09/10 09:28:25;;;;;;;16.83;11.70;;;;;;;22.76;78.25;98435.72;5025471;28;20029;-66
2021/09/10 09:30:54;;;;;;;15.38;11.25;;;;;;;23.15;75.52;98440.91;5025393;28;20029;-66
2021/09/10 09:33:22;;;;;;;17.48;12.23;;;;;;;23.48;74.27;98437.59;5025367;28;20045;-66
2021/09/10 09:35:50;;;;;;;16.17;10.80;;;;;;;23.91;73.14;98439.63;5007736;28;20030;-66
2021/09/10 09:38:20;;;;;;;16.35;11.43;;;;;;;24.66;70.11;98436.44;5025289;28;20022;-66
2021/09/10 09:40:52;;;;;;;14.73;10.68;;;;;;;25.00;69.44;98443.53;5025243;28;20029;-66
2021/09/10 09:43:21;;;;;;;17.65;11.70;;;;;;;25.05;69.41;98444.03;5025142;28;20037;-66
2021/09/10 09:45:51;;;;;;;14.88;10.55;;;;;;;25.55;68.80;98444.44;5007630;28;20047;-66
2021/09/10 09:48:19;;;;;;;14.40;11.52;;;;;;;25.85;65.33;98444.59;5025092;28;20088;-66
2021/09/10 09:50:46;;;;;;;14.77;11.25;;;;;;;26.20;68.33;98437.09;5025010;28;20190;-66
2021/09/10 09:53:14;;;;;;;16.80;11.32;;;;;;;26.53;65.40;98442.28;5025005;28;20029;-66
2021/09/10 09:55:41;;;;;;;17.45;10.52;;;;;;;26.73;62.54;98439.59;5024984;28;20053;-66
2021/09/10 09:58:07;;;;;;;16.70;10.95;;;;;;;26.72;63.49;98431.63;5025163;28;20136;-66
2021/09/10 10:00:34;;;;;;;17.98;11.95;;;;;;;26.22;64.18;98432.41;5024903;28;20194;-66
2021/09/10 10:03:01;;;;;;;14.38;11.20;;;;;;;26.20;66.13;98431.72;5024763;28;20337;-66
2021/09/10 10:05:27;;;;;;;16.45;11.05;;;;;;;26.06;65.85;98434.72;5024615;28;20042;-66
2021/09/10 10:08:06;;;;;;;19.08;10.82;;;;;;;26.15;64.68;98436.63;5024749;28;20029;-66
2021/09/10 10:10:47;;;;;;;12.65;10.63;;;;;;;26.49;62.92;98439.03;5024551;28;20048;-66
2021/09/10 10:13:20;;;;;;;11.98;9.77;;;;;;;26.63;65.75;98444.09;5024676;28;20036;-66
2021/09/10 10:15:45;;;;;;;15.95;10.68;;;;;;;27.06;64.46;98443.88;5024623;28;20037;-66
2021/09/10 10:18:11;;;;;;;16.17;10.55;;;;;;;27.01;64.23;98438.00;5024842;28;20026;-66
2021/09/10 10:20:46;;;;;;;16.10;10.30;;;;;;;27.13;62.15;98442.31;5024554;28;20045;-66
2021/09/10 10:23:42;;;;;;;14.82;10.02;;;;;;;26.98;63.51;98430.19;5024416;28;20221;-66
2021/09/10 10:26:20;;;;;;;14.68;9.93;;;;;;;26.86;63.35;98436.69;5024456;28;20026;-66
2021/09/10 10:28:48;;;;;;;11.80;9.45;;;;;;;27.18;61.97;98440.09;5024416;28;20029;-66
2021/09/10 10:31:14;;;;;;;14.25;10.07;;;;;;;27.36;60.83;98427.63;5024437;28;20029;-66
2021/09/10 10:33:47;;;;;;;12.77;9.68;;;;;;;27.82;61.45;98438.69;5024366;28;20219;-66
2021/09/10 10:36:36;;;;;;;14.70;9.75;;;;;;;28.05;59.88;98431.16;5024591;28;20085;-66
2021/09/10 10:39:07;;;;;;;14.50;9.75;;;;;;;27.54;60.55;98425.09;5024327;28;20028;-66
2021/09/10 10:41:45;;;;;;;13.05;9.90;;;;;;;27.39;61.79;98421.94;5024302;28;20306;-66
2021/09/10 10:44:32;;;;;;;14.25;10.27;;;;;;;27.56;59.51;98426.69;5024234;28;20276;-66
2021/09/10 10:47:10;;;;;;;13.73;9.90;;;;;;;27.56;57.84;98433.94;5024194;28;20028;-66
2021/09/10 10:49:38;;;;;;;14.25;8.95;;;;;;;27.41;57.87;98435.31;5024153;28;20209;-66
2021/09/10 10:52:28;;;;;;;14.80;9.63;;;;;;;26.14;61.40;98429.53;5024178;28;20217;-66
2021/09/10 10:55:18;;;;;;;15.15;10.15;;;;;;;25.15;62.86;98427.97;5024117;28;20022;-66
2021/09/10 10:57:54;;;;;;;16.90;11.73;;;;;;;25.05;64.06;98440.47;5024129;28;20018;-66
2021/09/10 11:00:28;;;;;;;15.27;10.27;;;;;;;25.86;65.56;98419.34;5024060;28;20029;-66
2021/09/10 11:03:12;;;;;;;14.45;11.15;;;;;;;25.78;63.81;98433.47;5023988;28;20025;-66
2021/09/10 11:05:43;;;;;;;16.80;9.60;;;;;;;25.58;65.04;98425.31;5023865;28;20048;-66
2021/09/10 11:08:08;;;;;;;13.70;10.35;;;;;;;25.13;66.83;98436.16;5024276;28;20109;-66
2021/09/10 11:10:35;;;;;;;12.68;9.80;;;;;;;25.07;66.09;98436.69;5024010;28;20026;-66
2021/09/10 11:13:00;;;;;;;17.27;10.77;;;;;;;24.85;68.46;98441.22;5023917;28;20026;-66
2021/09/10 11:15:34;;;;;;;13.13;9.63;;;;;;;24.93;65.96;98436.09;5023892;28;20068;-66
2021/09/10 11:18:03;;;;;;;11.98;9.55;;;;;;;24.65;66.66;98437.41;5023880;28;20022;-66
2021/09/10 11:20:42;;;;;;;14.20;10.30;;;;;;;24.51;68.45;98439.44;5023865;28;20022;-66